createdAt,value
2018-08-25T00:00:24.368Z,98.42
2018-08-25T00:02:53.312Z,98.25
2018-08-25T00:05:21.366Z,98.82
2018-08-25T00:07:49.512Z,98.62
2018-08-25T00:10:17.638Z,98.24
2018-08-25T00:12:45.767Z,98.30
2018-08-25T00:15:13.843Z,98.01
2018-08-25T00:17:41.947Z,98.11
2018-08-25T00:20:10.021Z,98.59
2018-08-25T00:22:38.125Z,98.56
2018-08-25T00:25:06.289Z,98.46
2018-08-25T00:27:34.412Z,98.24
2018-08-25T00:30:02.492Z,98.59
2018-08-25T00:32:30.663Z,98.31
2018-08-25T00:34:58.813Z,98.33
2018-08-25T00:37:26.894Z,98.91
2018-08-25T00:39:54.979Z,98.26
2018-08-25T00:42:23.131Z,98.43
2018-08-25T00:44:51.297Z,98.18
2018-08-25T00:47:19.425Z,98.24
2018-08-25T00:49:47.570Z,98.28
2018-08-25T00:52:15.731Z,98.39
2018-08-25T00:54:43.851Z,98.57
2018-08-25T00:57:12.001Z,98.59
2018-08-25T00:59:40.107Z,98.33
2018-08-25T01:02:08.228Z,98.12
2018-08-25T01:04:36.389Z,98.67
2018-08-25T01:07:04.903Z,98.15
2018-08-25T01:09:33.014Z,98.07
2018-08-25T01:12:01.127Z,98.07
2018-08-25T01:14:29.271Z,98.73
2018-08-25T01:16:57.411Z,99.18
2018-08-25T01:19:25.556Z,98.86
2018-08-25T01:21:53.701Z,98.32
2018-08-25T01:24:21.830Z,98.46
2018-08-25T01:26:49.973Z,98.61
2018-08-25T01:29:18.077Z,98.32
2018-08-25T01:31:46.180Z,98.56
2018-08-25T01:34:14.288Z,98.32
2018-08-25T01:36:42.414Z,98.46
2018-08-25T01:39:10.568Z,98.27
2018-08-25T01:41:38.729Z,98.36
2018-08-25T01:44:06.872Z,98.49
2018-08-25T01:46:35.003Z,98.62
2018-08-25T01:49:03.289Z,98.54
2018-08-25T01:51:31.409Z,98.97
2018-08-25T01:53:59.837Z,99.09
2018-08-25T01:56:27.931Z,98.82
2018-08-25T01:58:56.032Z,98.75
2018-08-25T02:01:24.979Z,99.06
2018-08-25T02:03:53.108Z,98.76
2018-08-25T02:06:21.198Z,98.93
2018-08-25T02:08:49.385Z,98.70
2018-08-25T02:11:17.621Z,98.67
2018-08-25T02:13:46.125Z,98.82
2018-08-25T02:16:14.259Z,98.76
2018-08-25T02:18:42.398Z,98.92
2018-08-25T02:21:10.552Z,98.76
2018-08-25T02:23:38.691Z,98.48
2018-08-25T02:26:06.796Z,98.71
2018-08-25T02:28:34.905Z,98.55
2018-08-25T02:31:03.052Z,98.53
2018-08-25T02:33:31.228Z,99.11
2018-08-25T02:35:59.418Z,98.95
2018-08-25T02:38:27.523Z,98.60
2018-08-25T02:40:55.630Z,98.58
2018-08-25T02:43:23.720Z,98.43
2018-08-25T02:45:51.817Z,98.61
2018-08-25T02:48:19.980Z,98.42
2018-08-25T02:50:48.077Z,98.63
2018-08-25T02:53:16.176Z,98.76
2018-08-25T02:55:44.284Z,98.43
2018-08-25T02:58:12.384Z,98.54
2018-08-25T03:00:40.528Z,98.48
2018-08-25T03:08:03.390Z,98.47
2018-08-25T03:10:31.485Z,98.54
2018-08-25T03:12:59.610Z,98.88
2018-08-25T03:15:27.716Z,99.10
2018-08-25T03:17:55.795Z,98.98
2018-08-25T03:20:23.921Z,98.54
2018-08-25T03:22:52.288Z,98.53
2018-08-25T03:25:20.368Z,98.20
2018-08-25T03:27:48.553Z,97.99
2018-08-25T03:30:16.695Z,97.94
2018-08-25T03:32:44.817Z,97.71
2018-08-25T03:35:12.951Z,97.94
2018-08-25T03:37:41.154Z,97.93
2018-08-25T03:40:09.314Z,97.94
2018-08-25T03:42:37.444Z,97.92
2018-08-25T03:45:05.626Z,98.31
2018-08-25T03:47:33.793Z,98.98
2018-08-25T03:50:02.061Z,99.26
2018-08-25T03:52:30.228Z,98.91
2018-08-25T03:54:58.353Z,99.11
2018-08-25T03:57:26.497Z,98.84
2018-08-25T03:59:54.612Z,99.40
2018-08-25T04:02:22.734Z,99.15
2018-08-25T04:04:50.912Z,99.49
2018-08-25T04:07:19.200Z,99.58
2018-08-25T04:09:47.320Z,99.50
2018-08-25T04:12:15.459Z,99.49
2018-08-25T04:14:43.650Z,99.28
2018-08-25T04:17:11.793Z,99.22
2018-08-25T04:19:39.942Z,98.96
2018-08-25T04:22:08.100Z,99.05
2018-08-25T04:24:36.237Z,99.37
2018-08-25T04:27:04.425Z,99.39
2018-08-25T04:29:32.667Z,99.18
2018-08-25T04:32:00.781Z,99.17
2018-08-25T04:34:28.880Z,99.23
2018-08-25T04:36:57.130Z,99.02
2018-08-25T04:39:25.291Z,98.67
2018-08-25T04:41:53.488Z,98.83
2018-08-25T04:44:21.614Z,98.83
2018-08-25T04:46:49.758Z,98.49
2018-08-25T04:49:17.945Z,98.03
2018-08-25T04:51:46.045Z,97.98
2018-08-25T04:54:14.241Z,98.22
2018-08-25T04:56:42.380Z,97.97
2018-08-25T04:59:10.588Z,97.79
2018-08-25T05:01:38.754Z,97.56
2018-08-25T05:04:06.896Z,97.56
2018-08-25T05:06:35.100Z,97.60
2018-08-25T05:09:03.304Z,97.28
2018-08-25T05:11:31.482Z,97.13
2018-08-25T05:13:59.644Z,96.93
2018-08-25T05:16:27.810Z,95.92
2018-08-25T05:18:55.993Z,95.53
2018-08-25T05:21:24.138Z,95.22
2018-08-25T05:23:52.366Z,93.79
2018-08-25T05:26:20.610Z,93.69
2018-08-25T05:28:48.776Z,91.49
2018-08-25T05:31:16.966Z,90.51
2018-08-25T05:33:45.136Z,89.52
2018-08-25T05:36:13.298Z,85.25
2018-08-25T05:38:41.445Z,84.09
2018-08-25T05:41:09.776Z,85.00
2018-08-25T05:43:37.921Z,87.37
2018-08-25T05:46:07.125Z,87.06
2018-08-25T05:48:35.320Z,87.99
2018-08-25T05:51:04.385Z,87.26
2018-08-25T05:53:32.512Z,83.90
2018-08-25T05:56:00.673Z,83.93
2018-08-25T05:58:28.841Z,81.70
2018-08-25T06:00:57.044Z,77.30
2018-08-25T06:03:25.136Z,72.76
2018-08-25T06:05:53.323Z,71.97
2018-08-25T06:08:21.500Z,72.95
2018-08-25T06:10:49.679Z,73.50
2018-08-25T06:13:17.826Z,72.25
2018-08-25T06:15:45.964Z,74.27
2018-08-25T06:18:14.070Z,76.14
2018-08-25T06:20:42.201Z,76.76
2018-08-25T06:23:10.397Z,78.39
2018-08-25T06:25:38.567Z,78.13
2018-08-25T06:28:06.711Z,79.55
2018-08-25T06:30:34.851Z,82.26
2018-08-25T06:33:03.003Z,79.93
2018-08-25T06:35:31.179Z,80.71
2018-08-25T06:37:59.408Z,80.77
2018-08-25T06:40:27.524Z,78.49
2018-08-25T06:42:55.730Z,79.73
2018-08-25T06:45:23.875Z,80.76
2018-08-25T06:47:51.988Z,79.52
2018-08-25T06:50:20.140Z,79.09
2018-08-25T06:52:48.285Z,82.15
2018-08-25T06:55:16.541Z,83.81
2018-08-25T06:57:44.739Z,83.75
2018-08-25T07:00:12.862Z,82.35
2018-08-25T07:02:41.030Z,82.04
2018-08-25T07:05:09.155Z,84.73
2018-08-25T07:07:37.299Z,85.37
2018-08-25T07:10:05.478Z,82.92
2018-08-25T07:12:33.590Z,84.66
2018-08-25T07:15:01.760Z,85.61
2018-08-25T07:17:29.865Z,85.58
2018-08-25T07:19:58.041Z,82.93
2018-08-25T07:22:26.192Z,83.55
2018-08-25T07:24:54.388Z,83.75
2018-08-25T07:27:22.648Z,83.34
2018-08-25T07:29:50.822Z,82.12
2018-08-25T07:32:18.995Z,86.25
2018-08-25T07:34:47.149Z,82.62
2018-08-25T07:37:15.401Z,83.36
2018-08-25T07:39:43.590Z,80.18
2018-08-25T07:42:11.755Z,76.81
2018-08-25T07:44:39.934Z,76.79
2018-08-25T07:47:08.104Z,75.60
2018-08-25T07:49:36.403Z,74.82
2018-08-25T07:52:04.625Z,73.57
2018-08-25T07:54:33.376Z,72.12
2018-08-25T07:57:01.599Z,72.00
2018-08-25T07:59:29.817Z,73.33
2018-08-25T08:01:58.097Z,69.76
2018-08-25T08:04:26.281Z,71.68
2018-08-25T08:06:54.437Z,72.04
2018-08-25T08:09:22.629Z,72.46
2018-08-25T08:11:50.890Z,73.25
2018-08-25T08:14:19.018Z,72.41
2018-08-25T08:16:47.238Z,74.81
2018-08-25T08:19:15.380Z,73.45
2018-08-25T08:21:43.541Z,77.28
2018-08-25T08:24:11.753Z,78.74
2018-08-25T08:26:39.959Z,79.35
2018-08-25T08:29:08.186Z,78.26
2018-08-25T08:31:36.345Z,76.59
2018-08-25T08:34:04.552Z,75.46
2018-08-25T08:36:32.817Z,77.95
2018-08-25T08:39:00.998Z,79.42
2018-08-25T08:41:29.160Z,80.19
2018-08-25T08:43:57.329Z,81.28
2018-08-25T08:46:30.849Z,83.63
2018-08-25T08:48:59.137Z,81.38
2018-08-25T08:51:27.424Z,82.56
2018-08-25T08:53:55.546Z,85.00
2018-08-25T08:56:23.664Z,85.33
2018-08-25T08:58:51.845Z,85.64
2018-08-25T09:01:20.099Z,85.26
2018-08-25T09:03:48.321Z,86.11
2018-08-25T09:06:16.508Z,84.98
2018-08-25T09:08:44.688Z,87.34
2018-08-25T09:11:12.885Z,87.85
2018-08-25T09:13:41.045Z,88.18
2018-08-25T09:16:09.159Z,90.23
2018-08-25T09:18:37.362Z,90.11
2018-08-25T09:21:05.596Z,89.44
2018-08-25T09:23:33.790Z,89.86
2018-08-25T09:26:01.951Z,89.88
2018-08-25T09:28:30.119Z,89.65
2018-08-25T09:30:58.338Z,88.08
2018-08-25T09:33:26.501Z,89.48
2018-08-25T09:35:54.786Z,91.56
2018-08-25T09:38:22.826Z,90.02
2018-08-25T09:40:51.017Z,90.08
2018-08-25T09:43:20.264Z,91.59
2018-08-25T09:45:49.161Z,92.12
2018-08-25T09:48:17.317Z,91.79
2018-08-25T09:50:45.463Z,91.51
2018-08-25T09:53:13.630Z,92.04
2018-08-25T09:55:41.793Z,92.10
2018-08-25T09:58:10.043Z,93.18
2018-08-25T10:00:38.372Z,93.13
2018-08-25T10:03:07.786Z,90.68
2018-08-25T10:05:35.984Z,90.86
2018-08-25T10:08:04.187Z,87.71
2018-08-25T10:10:32.347Z,87.82
2018-08-25T10:13:00.477Z,87.69
2018-08-25T10:15:28.619Z,88.62
2018-08-25T10:17:56.760Z,86.07
2018-08-25T10:20:24.912Z,84.63
2018-08-25T10:22:53.138Z,85.83
2018-08-25T10:25:21.287Z,87.94
2018-08-25T10:27:49.481Z,86.58
2018-08-25T10:30:18.237Z,85.94
2018-08-25T10:32:46.406Z,88.70
2018-08-25T10:35:14.580Z,88.27
2018-08-25T10:37:42.782Z,84.57
2018-08-25T10:40:10.941Z,81.21
2018-08-25T10:42:39.100Z,80.20
2018-08-25T10:45:08.176Z,83.61
2018-08-25T10:47:36.355Z,84.96
2018-08-25T10:50:04.566Z,83.38
2018-08-25T10:52:32.758Z,82.95
2018-08-25T10:55:00.937Z,84.20
2018-08-25T10:57:29.057Z,82.74
2018-08-25T10:59:57.221Z,83.20
2018-08-25T11:02:27.302Z,84.79
2018-08-25T11:04:55.464Z,87.46
2018-08-25T11:07:24.287Z,86.38
2018-08-25T11:09:53.309Z,91.48
2018-08-25T11:12:21.863Z,91.44
2018-08-25T11:14:50.001Z,92.74
2018-08-25T11:17:18.201Z,92.64
2018-08-25T11:19:46.355Z,93.64
2018-08-25T11:22:14.528Z,93.85
2018-08-25T11:24:42.751Z,91.50
2018-08-25T11:27:10.977Z,91.83
2018-08-25T11:29:39.108Z,91.54
2018-08-25T11:32:07.313Z,90.34
2018-08-25T11:34:35.477Z,90.53
2018-08-25T11:37:04.248Z,86.23
2018-08-25T11:39:32.436Z,87.54
2018-08-25T11:42:00.543Z,88.91
2018-08-25T11:44:28.672Z,86.84
2018-08-25T11:46:56.789Z,88.70
2018-08-25T11:49:24.917Z,87.05
2018-08-25T11:51:53.093Z,90.05
2018-08-25T11:54:21.304Z,90.80
2018-08-25T11:56:49.453Z,90.95
2018-08-25T11:59:17.649Z,88.12
2018-08-25T12:01:46.178Z,90.63
2018-08-25T12:04:14.301Z,92.91
2018-08-25T12:06:42.585Z,92.95
2018-08-25T12:09:12.422Z,92.10
2018-08-25T12:11:40.733Z,93.32
2018-08-25T12:14:08.877Z,91.84
2018-08-25T12:16:37.086Z,92.86
2018-08-25T12:19:05.230Z,95.35
2018-08-25T12:21:33.347Z,96.04
2018-08-25T12:24:01.568Z,95.42
2018-08-25T12:26:29.673Z,93.26
2018-08-25T12:28:57.823Z,92.26
2018-08-25T12:31:26.097Z,93.24
2018-08-25T12:33:54.257Z,91.15
2018-08-25T12:36:22.457Z,86.48
2018-08-25T12:38:50.575Z,86.87
2018-08-25T12:41:19.055Z,88.25
2018-08-25T13:19:33.321Z,76.56
2018-08-25T13:22:01.547Z,81.49
2018-08-25T13:24:29.762Z,85.15
2018-08-25T13:26:57.947Z,87.91
2018-08-25T13:29:26.088Z,88.59
2018-08-25T13:31:54.261Z,88.84
2018-08-25T13:34:22.453Z,91.88
2018-08-25T13:36:50.615Z,93.00
2018-08-25T13:39:18.767Z,90.19
2018-08-25T13:41:46.953Z,92.49
2018-08-25T13:44:15.245Z,91.10
2018-08-25T13:46:43.751Z,93.01
2018-08-25T13:49:11.932Z,94.00
2018-08-25T13:51:40.147Z,92.11
2018-08-25T13:54:08.433Z,91.75
2018-08-25T13:56:36.568Z,91.73
2018-08-25T13:59:04.691Z,89.35
2018-08-25T14:01:32.843Z,91.04
2018-08-25T14:04:01.060Z,89.08
2018-08-25T14:06:29.206Z,91.40
2018-08-25T14:08:57.404Z,91.56
2018-08-25T14:11:25.717Z,90.47
2018-08-25T14:13:53.928Z,91.74
2018-08-25T14:16:22.127Z,91.47
2018-08-25T14:18:50.252Z,91.19
2018-08-25T14:21:18.397Z,92.32
2018-08-25T14:23:46.555Z,92.49
2018-08-25T14:26:25.698Z,91.57
2018-08-25T14:28:55.501Z,91.10
2018-08-25T14:31:23.634Z,89.17
2018-08-25T14:33:51.809Z,89.14
2018-08-25T14:36:20.059Z,91.77
2018-08-25T14:38:48.143Z,91.10
2018-08-25T14:41:16.265Z,91.01
2018-08-25T14:43:44.440Z,90.67
2018-08-25T14:46:12.729Z,91.45
2018-08-25T14:48:40.862Z,91.68
2018-08-25T14:51:08.994Z,90.91
2018-08-25T14:53:37.184Z,90.75
2018-08-25T14:56:05.432Z,90.47
2018-08-25T14:58:33.666Z,90.21
2018-08-25T15:01:01.827Z,88.84
2018-08-25T15:03:29.979Z,89.89
2018-08-25T15:05:58.119Z,90.88
2018-08-25T15:08:26.350Z,89.42
2018-08-25T15:10:54.525Z,88.61
2018-08-25T15:13:22.674Z,88.79
2018-08-25T15:15:50.928Z,89.71
2018-08-25T15:18:19.097Z,89.95
2018-08-25T15:20:47.538Z,86.80
2018-08-25T15:23:16.517Z,87.65
2018-08-25T15:25:44.716Z,87.22
2018-08-25T15:28:12.906Z,87.49
2018-08-25T15:30:41.041Z,88.94
2018-08-25T15:33:10.383Z,88.02
2018-08-25T15:35:38.554Z,89.37
2018-08-25T15:38:06.681Z,89.43
2018-08-25T15:40:34.810Z,86.66
2018-08-25T15:43:02.957Z,87.14
2018-08-25T15:45:31.105Z,87.48
2018-08-25T15:47:59.241Z,88.17
2018-08-25T15:50:27.484Z,88.41
2018-08-25T15:52:55.673Z,88.80
2018-08-25T15:55:23.809Z,85.18
2018-08-25T15:57:52.078Z,85.83
2018-08-25T16:00:20.093Z,83.02
2018-08-25T16:02:48.277Z,83.68
2018-08-25T16:05:16.440Z,81.11
2018-08-25T16:07:45.228Z,80.36
2018-08-25T16:10:13.352Z,83.49
2018-08-25T16:12:41.528Z,78.05
2018-08-25T16:15:09.696Z,82.09
2018-08-25T16:17:37.833Z,82.22
2018-08-25T16:20:06.119Z,81.34
2018-08-25T16:22:34.112Z,82.92
2018-08-25T16:25:02.304Z,82.35
2018-08-25T16:27:30.452Z,84.20
2018-08-25T16:29:58.577Z,84.14
2018-08-25T16:32:26.716Z,82.59
2018-08-25T16:34:54.898Z,83.51
2018-08-25T16:37:23.073Z,84.45
2018-08-25T16:39:51.273Z,83.90
2018-08-25T16:42:19.456Z,85.94
2018-08-25T16:44:47.628Z,83.89
2018-08-25T16:47:15.759Z,85.99
2018-08-25T16:49:43.917Z,83.69
2018-08-25T16:52:12.069Z,82.68
2018-08-25T16:54:40.231Z,80.90
2018-08-25T16:57:08.361Z,81.83
2018-08-25T16:59:36.524Z,81.40
2018-08-25T17:02:04.715Z,81.57
2018-08-25T17:04:32.849Z,82.91
2018-08-25T17:07:00.967Z,83.74
2018-08-25T17:09:29.116Z,83.23
2018-08-25T17:11:57.337Z,84.71
2018-08-25T17:14:25.424Z,81.53
2018-08-25T17:16:53.585Z,83.48
2018-08-25T17:19:21.704Z,81.60
2018-08-25T17:21:49.822Z,82.09
2018-08-25T17:24:17.976Z,81.69
2018-08-25T17:26:46.134Z,81.11
2018-08-25T17:29:14.301Z,83.99
2018-08-25T17:31:42.580Z,80.07
2018-08-25T17:34:10.774Z,82.48
2018-08-25T17:36:38.916Z,84.55
2018-08-25T17:39:09.823Z,84.31
2018-08-25T17:41:38.026Z,83.60
2018-08-25T17:44:06.200Z,84.50
2018-08-25T17:46:34.330Z,84.37
2018-08-25T17:49:02.490Z,85.33
2018-08-25T17:51:30.646Z,84.61
2018-08-25T17:53:58.804Z,83.62
2018-08-25T17:56:26.997Z,85.82
2018-08-25T17:58:55.164Z,84.07
2018-08-25T18:01:23.324Z,84.56
2018-08-25T18:03:51.592Z,86.11
2018-08-25T18:06:19.634Z,85.76
2018-08-25T18:08:47.768Z,86.18
2018-08-25T18:11:15.976Z,84.88
2018-08-25T18:13:44.075Z,85.79
2018-08-25T18:16:12.192Z,86.24
2018-08-25T18:18:40.324Z,87.34
2018-08-25T18:21:08.420Z,88.73
2018-08-25T18:23:36.572Z,87.59
2018-08-25T18:26:04.757Z,87.94
2018-08-25T18:28:32.877Z,88.20
2018-08-25T18:31:01.033Z,88.54
2018-08-25T18:33:29.154Z,88.65
2018-08-25T18:35:57.262Z,89.39
2018-08-25T18:38:25.417Z,87.04
2018-08-25T18:40:53.577Z,88.67
2018-08-25T18:43:21.692Z,90.04
2018-08-25T18:45:49.819Z,89.93
2018-08-25T18:48:18.018Z,89.76
2018-08-25T18:50:46.156Z,90.21
2018-08-25T18:53:14.466Z,91.36
2018-08-25T18:55:42.616Z,91.78
2018-08-25T18:58:10.776Z,92.12
2018-08-25T19:00:38.900Z,91.69
2018-08-25T19:03:07.347Z,92.32
2018-08-25T19:05:35.514Z,91.96
2018-08-25T19:08:03.669Z,92.32
2018-08-25T19:10:31.796Z,92.53
2018-08-25T19:13:00.038Z,92.74
2018-08-25T19:15:28.746Z,92.92
2018-08-25T19:17:56.904Z,92.09
2018-08-25T19:20:25.092Z,92.25
2018-08-25T19:22:53.259Z,92.57
2018-08-25T19:25:21.411Z,92.36
2018-08-25T19:27:49.616Z,92.62
2018-08-25T19:30:17.748Z,93.38
2018-08-25T19:32:45.908Z,93.48
2018-08-25T19:35:14.041Z,93.91
2018-08-25T19:37:42.205Z,94.10
2018-08-25T19:40:10.332Z,94.30
2018-08-25T19:42:38.512Z,94.05
2018-08-25T19:45:06.715Z,93.83
2018-08-25T19:47:34.892Z,94.04
2018-08-25T19:50:03.017Z,93.46
2018-08-25T19:52:31.260Z,94.22
2018-08-25T19:54:59.422Z,93.56
2018-08-25T19:57:27.520Z,92.17
2018-08-25T19:59:55.686Z,92.05
2018-08-25T20:02:23.843Z,91.82
2018-08-25T20:04:51.995Z,92.09
2018-08-25T20:07:20.139Z,92.09
2018-08-25T20:09:48.821Z,91.67
2018-08-25T20:12:16.954Z,91.91
2018-08-25T20:14:45.098Z,91.71
2018-08-25T20:17:13.260Z,91.24
2018-08-25T20:19:41.420Z,91.38
2018-08-25T20:22:10.204Z,91.23
2018-08-25T20:24:38.420Z,91.81
2018-08-25T20:27:06.574Z,91.50
2018-08-25T20:29:34.714Z,92.36
2018-08-25T20:32:02.889Z,91.80
2018-08-25T20:34:31.043Z,91.93
2018-08-25T20:36:59.284Z,92.45
2018-08-25T20:39:27.377Z,92.11
2018-08-25T20:41:55.528Z,91.98
2018-08-25T20:44:23.704Z,92.51
2018-08-25T20:46:51.843Z,92.08
2018-08-25T20:49:19.980Z,92.36
2018-08-25T20:51:48.137Z,92.16
2018-08-25T20:54:16.248Z,92.38
2018-08-25T20:56:44.365Z,92.72
2018-08-25T20:59:12.488Z,93.13
2018-08-25T21:01:40.668Z,93.42
2018-08-25T21:04:08.836Z,93.59
2018-08-25T21:06:36.995Z,93.89
2018-08-25T21:09:07.943Z,93.73
2018-08-25T21:11:36.096Z,93.62
2018-08-25T21:14:04.266Z,94.07
2018-08-25T21:16:32.463Z,93.97
2018-08-25T21:19:00.552Z,93.99
2018-08-25T21:21:28.713Z,94.72
2018-08-25T21:23:56.861Z,95.15
2018-08-25T21:26:25.048Z,95.21
2018-08-25T21:28:53.336Z,94.87
2018-08-25T21:31:21.605Z,94.98
2018-08-25T21:33:49.954Z,95.06
2018-08-25T21:36:18.173Z,95.47
2018-08-25T21:38:46.305Z,95.40
2018-08-25T21:41:14.517Z,95.69
2018-08-25T21:43:42.696Z,95.95
2018-08-25T21:46:10.868Z,95.47
2018-08-25T21:48:39.060Z,95.73
2018-08-25T21:51:07.267Z,95.74
2018-08-25T21:53:35.392Z,95.65
2018-08-25T21:56:03.532Z,95.80
2018-08-25T21:58:31.709Z,95.44
2018-08-25T22:00:59.902Z,95.60
2018-08-25T22:03:28.700Z,95.04
2018-08-25T22:05:57.579Z,95.39
2018-08-25T22:08:25.988Z,95.48
2018-08-25T22:10:54.544Z,95.21
2018-08-25T22:13:22.991Z,94.72
2018-08-25T22:15:51.211Z,95.57
2018-08-25T22:18:19.956Z,95.40
2018-08-25T22:20:48.115Z,95.26
2018-08-25T22:23:16.360Z,95.21
2018-08-25T22:25:44.485Z,94.95
2018-08-25T22:28:12.625Z,95.03
2018-08-25T22:30:40.800Z,95.19
2018-08-25T22:33:08.981Z,95.16
2018-08-25T22:35:37.127Z,95.46
2018-08-25T22:38:05.232Z,95.43
2018-08-25T22:40:33.374Z,95.86
2018-08-25T22:43:01.489Z,95.85
2018-08-25T22:45:29.616Z,95.83
2018-08-25T22:47:57.745Z,96.08
2018-08-25T22:50:25.903Z,95.81
2018-08-25T22:52:54.112Z,95.86
2018-08-25T22:55:23.326Z,95.75
2018-08-25T22:57:51.804Z,95.29
2018-08-25T23:00:20.496Z,94.94
2018-08-25T23:02:48.612Z,95.23
2018-08-25T23:05:16.740Z,95.26
2018-08-25T23:07:44.928Z,95.57
2018-08-25T23:10:13.086Z,95.51
2018-08-25T23:12:41.216Z,95.38
2018-08-25T23:15:09.372Z,95.45
2018-08-25T23:17:37.562Z,95.90
2018-08-25T23:20:05.725Z,95.61
2018-08-25T23:22:33.866Z,95.64
2018-08-25T23:25:02.000Z,96.19
2018-08-25T23:27:30.162Z,96.26
2018-08-25T23:29:58.287Z,96.30
2018-08-25T23:32:26.472Z,96.60
2018-08-25T23:34:54.657Z,96.66
2018-08-25T23:37:22.764Z,96.62
2018-08-25T23:39:50.956Z,96.31
2018-08-25T23:42:19.123Z,96.19
2018-08-25T23:44:47.255Z,96.08
2018-08-25T23:47:15.436Z,96.43
2018-08-25T23:49:43.656Z,96.20
2018-08-25T23:52:11.872Z,95.81
2018-08-25T23:54:40.117Z,95.77
2018-08-25T23:57:08.244Z,95.74
2018-08-25T23:59:36.380Z,95.71
